createdAt,value
2022-10-12T00:01:20.517Z,102249.31
2022-10-12T00:03:44.487Z,102252.03
2022-10-12T00:06:10.882Z,102249.59
2022-10-12T00:08:35.879Z,102254.06
2022-10-12T00:10:59.406Z,102257.94
2022-10-12T00:13:24.548Z,102257.34
2022-10-12T00:15:48.058Z,102252.84
2022-10-12T00:18:11.795Z,102253.69
2022-10-12T00:20:35.615Z,102246.50
2022-10-12T00:22:59.199Z,102252.81
2022-10-12T00:25:22.724Z,102259.09
2022-10-12T00:27:46.455Z,102250.19
2022-10-12T00:30:13.820Z,102254.53
2022-10-12T00:32:37.474Z,102248.50
2022-10-12T00:35:00.975Z,102257.44
2022-10-12T00:37:24.603Z,102260.38
2022-10-12T00:39:49.559Z,102253.38
2022-10-12T00:42:13.530Z,102250.59
2022-10-12T00:44:41.593Z,102247.97
2022-10-12T00:47:21.112Z,102257.06
2022-10-12T00:49:47.788Z,102255.28
2022-10-12T00:52:14.483Z,102261.75
2022-10-12T00:54:43.585Z,102259.84
2022-10-12T00:57:08.740Z,102263.31
2022-10-12T00:59:38.217Z,102261.47
2022-10-12T01:02:02.272Z,102262.53
2022-10-12T01:04:27.812Z,102262.50
2022-10-12T01:06:51.966Z,102260.91
2022-10-12T01:09:16.146Z,102257.28
2022-10-12T01:11:39.703Z,102256.56
2022-10-12T01:14:03.811Z,102257.44
2022-10-12T01:16:36.438Z,102256.66
2022-10-12T01:19:10.062Z,102260.31
2022-10-12T01:21:39.226Z,102257.72
2022-10-12T01:24:25.940Z,102265.94
2022-10-12T01:27:36.396Z,102261.50
2022-10-12T01:30:13.351Z,102263.34
2022-10-12T01:32:53.950Z,102267.69
2022-10-12T01:35:23.982Z,102274.97
2022-10-12T01:37:54.652Z,102260.81
2022-10-12T01:40:30.719Z,102268.88
2022-10-12T01:42:57.059Z,102266.38
2022-10-12T01:45:22.058Z,102270.50
2022-10-12T01:47:49.479Z,102268.91
2022-10-12T01:50:15.650Z,102271.69
2022-10-12T01:52:44.597Z,102271.69
2022-10-12T01:55:19.141Z,102265.53
2022-10-12T01:57:56.256Z,102269.53
2022-10-12T02:00:21.892Z,102264.25
2022-10-12T02:02:57.059Z,102263.75
2022-10-12T02:05:30.483Z,102264.84
2022-10-12T02:08:00.451Z,102254.19
2022-10-12T02:10:29.458Z,102258.75
2022-10-12T02:12:56.226Z,102256.22
2022-10-12T02:15:24.058Z,102251.03
2022-10-12T02:17:50.998Z,102254.53
2022-10-12T02:20:18.722Z,102258.06
2022-10-12T02:22:47.043Z,102251.00
2022-10-12T02:25:13.980Z,102253.56
2022-10-12T02:27:43.430Z,102254.56
2022-10-12T02:30:09.340Z,102259.09
2022-10-12T02:32:40.114Z,102253.66
2022-10-12T02:35:09.067Z,102250.28
2022-10-12T02:37:39.963Z,102249.34
2022-10-12T02:40:11.727Z,102246.00
2022-10-12T02:43:08.880Z,102240.66
2022-10-12T02:45:30.898Z,102241.66
2022-10-12T02:47:57.447Z,102239.06
2022-10-12T02:50:22.943Z,102239.22
2022-10-12T02:52:48.247Z,102235.66
2022-10-12T02:55:13.166Z,102234.81
2022-10-12T02:57:36.888Z,102233.97
2022-10-12T03:00:00.746Z,102232.06
2022-10-12T03:02:24.323Z,102230.94
2022-10-12T03:04:49.304Z,102233.88
2022-10-12T03:07:12.807Z,102240.38
2022-10-12T03:09:36.487Z,102241.25
2022-10-12T03:12:00.079Z,102244.88
2022-10-12T03:14:23.911Z,102236.91
2022-10-12T03:16:48.200Z,102237.88
2022-10-12T03:19:11.927Z,102245.72
2022-10-12T03:21:36.980Z,102238.72
2022-10-12T03:24:00.638Z,102237.88
2022-10-12T03:26:24.188Z,102232.72
2022-10-12T03:28:47.903Z,102232.63
2022-10-12T03:31:11.507Z,102230.13
2022-10-12T03:33:35.124Z,102226.59
2022-10-12T03:35:59.790Z,102227.72
2022-10-12T03:38:24.789Z,102230.56
2022-10-12T03:40:48.835Z,102232.13
2022-10-12T03:43:13.319Z,102229.44
2022-10-12T03:45:36.935Z,102228.69
2022-10-12T03:48:04.637Z,102233.09
2022-10-12T03:50:29.003Z,102229.72
2022-10-12T03:52:52.597Z,102233.22
2022-10-12T03:55:17.834Z,102234.91
2022-10-12T03:57:41.431Z,102228.75
2022-10-12T04:00:06.802Z,102233.31
2022-10-12T04:02:34.879Z,102233.38
2022-10-12T04:04:58.432Z,102243.81
2022-10-12T04:07:21.997Z,102246.53
2022-10-12T04:09:45.518Z,102243.94
2022-10-12T04:12:10.507Z,102244.94
2022-10-12T04:14:34.051Z,102251.00
2022-10-12T04:16:57.676Z,102243.03
2022-10-12T04:19:21.637Z,102248.47
2022-10-12T04:21:45.219Z,102245.03
2022-10-12T04:24:09.378Z,102241.41
2022-10-12T04:26:32.982Z,102238.84
2022-10-12T04:28:58.062Z,102244.28
2022-10-12T04:31:21.782Z,102236.03
2022-10-12T04:33:45.308Z,102240.59
2022-10-12T04:36:09.470Z,102233.56
2022-10-12T04:38:32.990Z,102228.25
2022-10-12T04:40:57.755Z,102227.41
2022-10-12T04:43:21.410Z,102239.88
2022-10-12T04:45:46.524Z,102238.16
2022-10-12T04:48:10.086Z,102235.56
2022-10-12T04:50:33.675Z,102237.34
2022-10-12T04:52:57.246Z,102243.53
2022-10-12T04:55:20.846Z,102239.16
2022-10-12T04:57:44.383Z,102242.78
2022-10-12T05:00:09.655Z,102248.94
2022-10-12T05:02:35.000Z,102244.41
2022-10-12T05:04:58.635Z,102252.44
2022-10-12T05:07:22.179Z,102257.03
2022-10-12T05:09:45.759Z,102255.13
2022-10-12T05:12:09.464Z,102256.97
2022-10-12T05:14:35.823Z,102248.34
2022-10-12T05:16:59.691Z,102254.47
2022-10-12T05:19:24.665Z,102252.56
2022-10-12T05:21:48.219Z,102253.00
2022-10-12T05:24:12.820Z,102246.69
2022-10-12T05:26:36.334Z,102250.22
2022-10-12T05:29:00.058Z,102250.22
2022-10-12T05:31:23.690Z,102248.69
2022-10-12T05:33:47.260Z,102243.28
2022-10-12T05:36:12.442Z,102254.19
2022-10-12T05:38:36.119Z,102247.88
2022-10-12T05:41:00.864Z,102245.28
2022-10-12T05:43:25.180Z,102254.59
2022-10-12T05:45:49.116Z,102248.88
2022-10-12T05:48:12.723Z,102249.56
2022-10-12T05:50:36.310Z,102245.28
2022-10-12T05:53:01.316Z,102245.03
2022-10-12T05:55:24.876Z,102249.63
2022-10-12T05:57:52.013Z,102257.50
2022-10-12T06:00:16.149Z,102253.06
2022-10-12T06:02:40.102Z,102256.41
2022-10-12T06:05:03.846Z,102256.22
2022-10-12T06:07:27.460Z,102261.66
2022-10-12T06:09:52.395Z,102270.28
2022-10-12T06:12:16.410Z,102259.88
2022-10-12T06:14:39.975Z,102265.75
2022-10-12T06:17:03.572Z,102272.50
2022-10-12T06:19:27.219Z,102275.00
2022-10-12T06:21:50.880Z,102278.28
2022-10-12T06:24:14.407Z,102276.69
2022-10-12T06:26:39.392Z,102281.50
2022-10-12T06:29:02.989Z,102276.19
2022-10-12T06:31:27.046Z,102277.22
2022-10-12T06:33:51.091Z,102278.28
2022-10-12T06:36:14.736Z,102284.53
2022-10-12T06:38:38.264Z,102279.94
2022-10-12T06:41:01.824Z,102284.19
2022-10-12T06:43:26.837Z,102279.56
2022-10-12T06:45:50.507Z,102281.56
2022-10-12T06:48:18.336Z,102272.81
2022-10-12T06:50:42.632Z,102287.25
2022-10-12T06:53:06.224Z,102272.81
2022-10-12T06:55:29.931Z,102275.69
2022-10-12T06:57:53.459Z,102276.06
2022-10-12T07:00:19.281Z,102283.03
2022-10-12T07:02:42.799Z,102278.97
2022-10-12T07:05:07.947Z,102283.13
2022-10-12T07:07:32.757Z,102289.00
2022-10-12T07:09:56.431Z,102287.66
2022-10-12T07:12:20.246Z,102288.34
2022-10-12T07:14:43.879Z,102281.56
2022-10-12T07:17:08.780Z,102294.31
2022-10-12T07:19:32.358Z,102283.34
2022-10-12T07:21:55.949Z,102289.84
2022-10-12T07:24:19.553Z,102286.97
2022-10-12T07:26:43.156Z,102297.78
2022-10-12T07:29:06.787Z,102282.91
2022-10-12T07:31:30.504Z,102290.38
2022-10-12T07:33:56.331Z,102292.41
2022-10-12T07:36:21.874Z,102289.13
2022-10-12T07:38:45.870Z,102290.06
2022-10-12T07:41:10.030Z,102282.22
2022-10-12T07:43:33.795Z,102290.44
2022-10-12T07:45:57.539Z,102281.75
2022-10-12T07:48:21.356Z,102290.94
2022-10-12T07:50:46.258Z,102279.41
2022-10-12T07:53:09.899Z,102283.72
2022-10-12T07:55:33.451Z,102286.91
2022-10-12T07:57:57.044Z,102285.91
2022-10-12T08:00:22.094Z,102276.41
2022-10-12T08:02:45.723Z,102275.53
2022-10-12T08:05:10.441Z,102279.31
2022-10-12T08:07:35.474Z,102276.78
2022-10-12T08:09:59.007Z,102279.97
2022-10-12T08:12:22.723Z,102280.53
2022-10-12T08:14:46.239Z,102276.75
2022-10-12T08:17:09.895Z,102278.59
2022-10-12T08:19:35.420Z,102272.34
2022-10-12T08:21:59.151Z,102277.66
2022-10-12T08:24:24.113Z,102274.19
2022-10-12T08:26:48.920Z,102271.78
2022-10-12T08:29:12.777Z,102274.34
2022-10-12T08:31:36.843Z,102276.34
2022-10-12T08:34:00.860Z,102274.38
2022-10-12T08:36:24.515Z,102277.25
2022-10-12T08:38:53.950Z,102268.94
2022-10-12T08:41:40.875Z,102276.78
2022-10-12T08:44:27.623Z,102271.50
2022-10-12T08:46:57.000Z,102266.13
2022-10-12T08:49:23.880Z,102272.50
2022-10-12T08:51:51.448Z,102266.63
2022-10-12T08:54:17.158Z,102269.00
2022-10-12T08:56:42.692Z,102266.88
2022-10-12T08:59:06.710Z,102261.69
2022-10-12T09:01:37.402Z,102262.22
2022-10-12T09:04:18.751Z,102256.25
2022-10-12T09:06:48.985Z,102260.03
2022-10-12T09:09:33.635Z,102252.88
2022-10-12T09:12:16.696Z,102260.19
2022-10-12T09:14:42.666Z,102257.00
2022-10-12T09:17:28.803Z,102255.44
2022-10-12T09:20:02.688Z,102253.41
2022-10-12T09:22:26.471Z,102245.84
2022-10-12T09:24:52.985Z,102249.41
2022-10-12T09:27:20.964Z,102257.75
2022-10-12T09:29:48.064Z,102244.19
2022-10-12T09:32:42.136Z,102239.63
2022-10-12T09:35:08.160Z,102242.03
2022-10-12T09:37:34.712Z,102239.56
2022-10-12T09:39:59.374Z,102240.13
2022-10-12T09:42:24.361Z,102227.47
2022-10-12T09:44:50.463Z,102232.75
2022-10-12T09:47:29.884Z,102231.47
2022-10-12T09:49:58.458Z,102225.59
2022-10-12T09:52:26.563Z,102228.94
2022-10-12T09:54:55.508Z,102227.56
2022-10-12T09:57:25.221Z,102226.53
2022-10-12T09:59:49.267Z,102227.59
2022-10-12T10:02:17.533Z,102228.88
2022-10-12T10:04:42.794Z,102226.28
2022-10-12T10:07:28.298Z,102221.84
2022-10-12T10:10:18.145Z,102220.38
2022-10-12T10:12:50.731Z,102220.72
2022-10-12T10:15:23.898Z,102219.63
2022-10-12T10:17:53.839Z,102214.19
2022-10-12T10:20:33.840Z,102212.59
2022-10-12T10:22:58.425Z,102214.16
2022-10-12T10:25:25.028Z,102213.44
2022-10-12T10:28:24.982Z,102207.50
2022-10-12T10:31:00.635Z,102213.69
2022-10-12T10:33:24.242Z,102210.69
2022-10-12T10:36:02.258Z,102207.25
2022-10-12T10:38:26.215Z,102206.28
2022-10-12T10:40:53.181Z,102202.91
2022-10-12T10:43:29.464Z,102208.75
2022-10-12T10:45:57.369Z,102214.53
2022-10-12T10:48:24.056Z,102198.97
2022-10-12T10:50:56.540Z,102195.28
2022-10-12T10:53:23.203Z,102200.25
2022-10-12T10:55:51.038Z,102194.75
2022-10-12T10:58:27.666Z,102203.34
2022-10-12T11:00:53.097Z,102192.44
2022-10-12T11:03:25.165Z,102193.94
2022-10-12T11:05:56.311Z,102196.94
2022-10-12T11:08:25.154Z,102187.34
2022-10-12T11:10:54.917Z,102184.19
2022-10-12T11:13:22.499Z,102181.03
2022-10-12T11:15:50.719Z,102175.13
2022-10-12T11:18:21.774Z,102175.50
2022-10-12T11:20:54.027Z,102169.97
2022-10-12T11:23:30.079Z,102169.25
2022-10-12T11:26:13.542Z,102165.81
2022-10-12T11:28:39.202Z,102154.78
2022-10-12T11:31:03.716Z,102156.22
2022-10-12T11:33:35.196Z,102156.81
2022-10-12T11:36:00.295Z,102151.78
2022-10-12T11:38:32.187Z,102157.13
2022-10-12T11:41:19.015Z,102154.81
2022-10-12T11:43:51.719Z,102149.91
2022-10-12T11:46:20.289Z,102147.19
2022-10-12T11:48:51.969Z,102138.78
2022-10-12T11:51:15.558Z,102138.84
2022-10-12T11:53:54.421Z,102139.16
2022-10-12T11:56:25.556Z,102140.47
2022-10-12T11:59:00.997Z,102130.03
2022-10-12T12:01:45.114Z,102131.00
2022-10-12T12:04:42.825Z,102132.47
2022-10-12T12:07:41.368Z,102125.16
2022-10-12T12:11:04.277Z,102112.56
2022-10-12T12:13:28.581Z,102112.25
2022-10-12T12:16:23.917Z,102113.00
2022-10-12T12:19:41.845Z,102111.00
2022-10-12T12:22:50.451Z,102114.69
2022-10-12T12:25:21.535Z,102111.13
2022-10-12T12:27:49.805Z,102106.72
2022-10-12T12:30:42.048Z,102108.63
2022-10-12T12:33:27.070Z,102108.28
2022-10-12T12:35:56.059Z,102108.56
2022-10-12T12:38:27.866Z,102105.97
2022-10-12T12:41:11.545Z,102105.78
2022-10-12T12:43:59.170Z,102105.13
2022-10-12T12:46:23.574Z,102107.56
2022-10-12T12:49:04.865Z,102107.97
2022-10-12T12:51:44.475Z,102100.09
2022-10-12T12:54:20.680Z,102102.97
2022-10-12T12:57:16.384Z,102099.09
2022-10-12T13:00:15.134Z,102098.09
2022-10-12T13:03:22.703Z,102091.34
2022-10-12T13:06:48.412Z,102088.38
2022-10-12T13:09:53.140Z,102077.06
2022-10-12T13:12:47.992Z,102084.78
2022-10-12T13:15:32.043Z,102079.50
2022-10-12T13:18:47.745Z,102084.75
2022-10-12T13:21:20.576Z,102079.84
2022-10-12T13:23:49.333Z,102078.84
2022-10-12T13:26:20.774Z,102078.13
2022-10-12T13:28:44.772Z,102075.25
2022-10-12T13:31:13.757Z,102074.34
2022-10-12T13:33:45.729Z,102074.34
2022-10-12T13:36:18.134Z,102069.41
2022-10-12T13:38:41.767Z,102067.75
2022-10-12T13:41:10.019Z,102071.41
2022-10-12T13:43:44.887Z,102065.97
2022-10-12T13:46:09.242Z,102065.69
2022-10-12T13:48:58.603Z,102061.47
2022-10-12T13:51:25.566Z,102058.72
2022-10-12T13:53:49.196Z,102051.75
2022-10-12T13:56:18.331Z,102057.63
2022-10-12T13:58:43.463Z,102053.78
2022-10-12T14:01:07.349Z,102048.25
2022-10-12T14:03:39.679Z,102038.72
2022-10-12T14:06:04.497Z,102038.44
2022-10-12T14:08:29.387Z,102042.25
2022-10-12T14:10:53.595Z,102040.25
2022-10-12T14:13:26.688Z,102042.69
2022-10-12T14:15:51.852Z,102041.28
2022-10-12T14:18:39.787Z,102027.28
2022-10-12T14:21:14.260Z,102031.28
2022-10-12T14:23:43.300Z,102026.75
2022-10-12T14:26:15.735Z,102033.06
2022-10-12T14:28:39.450Z,102027.09
2022-10-12T14:31:04.842Z,102026.28
2022-10-12T14:33:29.347Z,102020.69
2022-10-12T14:35:54.268Z,102023.00
2022-10-12T14:38:39.758Z,102016.97
2022-10-12T14:41:35.477Z,102012.97
2022-10-12T14:44:11.891Z,102015.78
2022-10-12T14:46:37.801Z,102001.50
2022-10-12T14:49:01.645Z,102004.47
2022-10-12T14:51:25.560Z,102003.03
2022-10-12T14:54:00.044Z,102001.22
2022-10-12T14:56:23.695Z,101992.06
2022-10-12T14:58:47.253Z,102004.16
2022-10-12T15:01:10.962Z,102007.44
2022-10-12T15:03:36.105Z,102001.09
2022-10-12T15:05:59.995Z,101999.91
2022-10-12T15:08:23.517Z,101997.28
2022-10-12T15:10:51.209Z,101988.88
2022-10-12T15:13:15.292Z,101982.06
2022-10-12T15:15:43.847Z,101988.66
2022-10-12T15:18:08.377Z,101986.66
2022-10-12T15:20:34.107Z,101978.84
2022-10-12T15:22:57.687Z,101979.25
2022-10-12T15:25:26.022Z,101988.34
2022-10-12T15:27:49.535Z,101981.53
2022-10-12T15:30:14.817Z,101984.13
2022-10-12T15:32:38.522Z,101981.53
2022-10-12T15:35:02.469Z,101977.56
2022-10-12T15:37:30.399Z,101984.00
2022-10-12T15:39:54.012Z,101972.63
2022-10-12T15:42:17.494Z,101972.25
2022-10-12T15:44:42.237Z,101970.78
2022-10-12T15:47:05.773Z,101976.69
2022-10-12T15:49:29.392Z,101974.38
2022-10-12T15:51:55.144Z,101974.97
2022-10-12T15:54:20.488Z,101973.88
2022-10-12T15:56:44.075Z,101967.63
2022-10-12T15:59:07.955Z,101971.03
2022-10-12T16:01:31.925Z,101973.38
2022-10-12T16:03:56.209Z,101975.66
2022-10-12T16:06:19.986Z,101968.03
2022-10-12T16:08:43.795Z,101980.75
2022-10-12T16:11:12.799Z,101975.09
2022-10-12T16:13:42.915Z,101972.16
2022-10-12T16:16:09.505Z,101967.72
2022-10-12T16:18:33.274Z,101964.50
2022-10-12T16:20:56.928Z,101975.16
2022-10-12T16:23:23.578Z,101966.13
2022-10-12T16:25:47.384Z,101975.88
2022-10-12T16:28:13.155Z,101972.78
2022-10-12T16:30:36.855Z,101964.41
2022-10-12T16:33:00.515Z,101969.94
2022-10-12T16:35:24.347Z,101974.78
2022-10-12T16:37:48.078Z,101966.91
2022-10-12T16:40:13.443Z,101966.47
2022-10-12T16:42:37.089Z,101967.38
2022-10-12T16:45:02.425Z,101963.59
2022-10-12T16:47:26.127Z,101963.91
2022-10-12T16:49:52.071Z,101960.28
2022-10-12T16:52:16.458Z,101955.53
2022-10-12T16:54:40.740Z,101960.69
2022-10-12T16:57:04.554Z,101963.78
2022-10-12T16:59:28.708Z,101966.25
2022-10-12T17:01:53.878Z,101965.50
2022-10-12T17:04:17.447Z,101965.56
2022-10-12T17:06:41.989Z,101959.19
2022-10-12T17:09:06.602Z,101965.09
2022-10-12T17:11:30.361Z,101975.41
2022-10-12T17:13:55.858Z,101973.22
2022-10-12T17:16:37.203Z,101977.28
2022-10-12T17:19:02.211Z,101975.09
2022-10-12T17:21:26.127Z,101967.50
2022-10-12T17:23:49.719Z,101968.97
2022-10-12T17:26:13.468Z,101971.97
2022-10-12T17:28:38.607Z,101970.16
2022-10-12T17:31:10.714Z,101976.69
2022-10-12T17:33:35.540Z,101971.69
2022-10-12T17:36:00.895Z,101962.56
2022-10-12T17:38:24.671Z,101969.13
2022-10-12T17:40:51.157Z,101961.44
2022-10-12T17:43:14.731Z,101964.59
2022-10-12T17:45:41.336Z,101965.00
2022-10-12T17:48:05.256Z,101962.78
2022-10-12T17:50:28.823Z,101954.13
2022-10-12T17:52:53.793Z,101958.16
2022-10-12T17:55:36.519Z,101953.06
2022-10-12T17:58:01.912Z,101961.59
2022-10-12T18:00:25.560Z,101960.06
2022-10-12T18:02:49.363Z,101963.03
2022-10-12T18:05:12.939Z,101951.00
2022-10-12T18:07:37.502Z,101950.25
2022-10-12T18:10:02.422Z,101959.34
2022-10-12T18:12:26.106Z,101953.50
2022-10-12T18:14:49.631Z,101949.63
2022-10-12T18:17:13.288Z,101954.19
2022-10-12T18:19:36.945Z,101952.84
2022-10-12T18:22:00.562Z,101954.16
2022-10-12T18:24:24.086Z,101941.78
2022-10-12T18:26:49.280Z,101944.16
2022-10-12T18:29:16.763Z,101947.97
2022-10-12T18:31:40.555Z,101940.19
2022-10-12T18:34:04.579Z,101938.59
2022-10-12T18:36:28.758Z,101937.13
2022-10-12T18:38:52.823Z,101931.84
2022-10-12T18:41:22.110Z,101945.38
2022-10-12T18:43:47.182Z,101942.09
2022-10-12T18:46:13.072Z,101945.28
2022-10-12T18:48:36.752Z,101943.72
2022-10-12T18:51:06.141Z,101945.69
2022-10-12T18:53:29.660Z,101943.56
2022-10-12T18:55:53.214Z,101942.25
2022-10-12T18:58:16.814Z,101938.63
2022-10-12T19:00:42.896Z,101935.94
2022-10-12T19:03:06.556Z,101943.53
2022-10-12T19:05:30.723Z,101934.09
2022-10-12T19:07:54.367Z,101935.06
2022-10-12T19:10:18.137Z,101923.63
2022-10-12T19:12:45.622Z,101928.31
2022-10-12T19:15:10.693Z,101929.44
2022-10-12T19:17:35.729Z,101923.44
2022-10-12T19:19:59.691Z,101921.88
2022-10-12T19:22:23.416Z,101931.81
2022-10-12T19:24:48.179Z,101923.31
2022-10-12T19:27:11.796Z,101922.63
2022-10-12T19:29:35.402Z,101925.50
2022-10-12T19:31:59.601Z,101923.84
2022-10-12T19:34:24.692Z,101930.28
2022-10-12T19:36:49.276Z,101918.66
2022-10-12T19:39:16.755Z,101920.88
2022-10-12T19:41:40.561Z,101914.91
2022-10-12T19:44:04.181Z,101913.97
2022-10-12T19:46:28.292Z,101922.94
2022-10-12T19:48:54.057Z,101924.91
2022-10-12T19:51:21.255Z,101919.94
2022-10-12T19:53:45.139Z,101917.50
2022-10-12T19:56:11.370Z,101907.81
2022-10-12T19:58:35.255Z,101909.78
2022-10-12T20:01:02.514Z,101908.16
2022-10-12T20:03:26.191Z,101905.81
2022-10-12T20:05:49.738Z,101910.28
2022-10-12T20:08:14.864Z,101906.03
2022-10-12T20:10:38.860Z,101903.69
2022-10-12T20:13:02.414Z,101904.72
2022-10-12T20:15:25.976Z,101903.91
2022-10-12T20:17:49.511Z,101899.66
2022-10-12T20:20:13.589Z,101906.13
2022-10-12T20:22:37.233Z,101895.56
2022-10-12T20:25:06.915Z,101910.84
2022-10-12T20:27:33.804Z,101900.47
2022-10-12T20:29:57.320Z,101908.63
2022-10-12T20:32:21.119Z,101902.66
2022-10-12T20:34:44.786Z,101901.84
2022-10-12T20:37:08.391Z,101896.59
2022-10-12T20:39:33.648Z,101891.28
2022-10-12T20:41:58.616Z,101889.72
2022-10-12T20:44:22.815Z,101888.72
2022-10-12T20:46:51.620Z,101883.75
2022-10-12T20:49:15.156Z,101884.69
2022-10-12T20:51:42.835Z,101885.84
2022-10-12T20:54:08.905Z,101880.59
2022-10-12T20:56:36.003Z,101882.56
2022-10-12T20:59:02.009Z,101875.53
2022-10-12T21:01:27.063Z,101873.03
2022-10-12T21:03:50.611Z,101879.22
2022-10-12T21:06:17.328Z,101875.00
2022-10-12T21:08:41.787Z,101867.06
2022-10-12T21:11:06.641Z,101864.59
2022-10-12T21:13:31.794Z,101867.34
2022-10-12T21:15:56.839Z,101863.00
2022-10-12T21:18:20.696Z,101859.53
2022-10-12T21:20:44.292Z,101859.63
2022-10-12T21:23:07.829Z,101864.09
2022-10-12T21:25:31.415Z,101858.06
2022-10-12T21:27:54.936Z,101859.03
2022-10-12T21:30:18.739Z,101857.53
2022-10-12T21:32:43.643Z,101856.88
2022-10-12T21:35:08.104Z,101858.75
2022-10-12T21:37:31.640Z,101867.72
2022-10-12T21:39:55.220Z,101865.97
2022-10-12T21:42:19.017Z,101870.47
2022-10-12T21:44:42.890Z,101875.00
2022-10-12T21:47:06.554Z,101868.94
2022-10-12T21:49:31.549Z,101877.88
2022-10-12T21:51:55.090Z,101873.63
2022-10-12T21:54:18.644Z,101871.59
2022-10-12T21:56:42.529Z,101869.28
2022-10-12T21:59:07.490Z,101873.25
2022-10-12T22:01:34.658Z,101869.56
2022-10-12T22:04:00.887Z,101876.72
2022-10-12T22:06:28.043Z,101870.59
2022-10-12T22:08:55.983Z,101870.81
2022-10-12T22:11:19.949Z,101866.28
2022-10-12T22:13:43.566Z,101864.75
2022-10-12T22:16:10.023Z,101861.44
2022-10-12T22:18:33.910Z,101851.47
2022-10-12T22:20:57.797Z,101858.69
2022-10-12T22:23:23.307Z,101853.34
2022-10-12T22:25:47.372Z,101848.22
2022-10-12T22:28:11.059Z,101853.56
2022-10-12T22:30:40.754Z,101855.56
2022-10-12T22:33:04.335Z,101854.00
2022-10-12T22:35:27.892Z,101851.34
2022-10-12T22:37:51.501Z,101846.19
2022-10-12T22:40:16.636Z,101847.06
2022-10-12T22:42:40.219Z,101842.66
2022-10-12T22:45:03.798Z,101842.72
2022-10-12T22:47:27.369Z,101845.47
2022-10-12T22:49:53.108Z,101844.69
2022-10-12T22:52:17.079Z,101828.47
2022-10-12T22:54:40.787Z,101827.13
2022-10-12T22:57:05.881Z,101823.66
2022-10-12T22:59:31.407Z,101829.88
2022-10-12T23:01:54.999Z,101826.41
2022-10-12T23:04:19.024Z,101827.63
2022-10-12T23:06:42.591Z,101825.69
2022-10-12T23:09:06.523Z,101824.97
2022-10-12T23:11:31.484Z,101824.09
2022-10-12T23:13:57.914Z,101825.97
2022-10-12T23:16:24.939Z,101823.38
2022-10-12T23:18:48.877Z,101818.97
2022-10-12T23:21:15.587Z,101816.31
2022-10-12T23:23:40.385Z,101813.97
2022-10-12T23:26:07.007Z,101813.13
2022-10-12T23:28:30.680Z,101822.03
2022-10-12T23:30:55.884Z,101817.53
2022-10-12T23:33:19.468Z,101822.13
2022-10-12T23:35:43.063Z,101814.38
2022-10-12T23:38:06.643Z,101813.44
2022-10-12T23:40:30.231Z,101813.53
2022-10-12T23:42:54.325Z,101815.59
2022-10-12T23:45:18.079Z,101809.41
2022-10-12T23:47:45.234Z,101805.94
2022-10-12T23:50:09.572Z,101812.91
2022-10-12T23:52:33.105Z,101808.66
2022-10-12T23:54:56.671Z,101812.19
2022-10-12T23:57:45.037Z,101804.25
